sensor_id;sensor_type;location;lat;lon;timestamp;P1;durP1;ratioP1;P2;durP2;ratioP2
6053;SDS011;3055;50.886;14.814;2022-07-03T00:01:36;8.63;;;7.83;;
6053;SDS011;3055;50.886;14.814;2022-07-03T00:04:03;8.70;;;7.80;;
6053;SDS011;3055;50.886;14.814;2022-07-03T00:06:30;8.77;;;7.93;;
6053;SDS011;3055;50.886;14.814;2022-07-03T00:09:00;8.80;;;8.00;;
6053;SDS011;3055;50.886;14.814;2022-07-03T00:11:29;10.20;;;7.97;;
6053;SDS011;3055;50.886;14.814;2022-07-03T00:13:56;9.70;;;8.70;;
6053;SDS011;3055;50.886;14.814;2022-07-03T00:16:23;10.23;;;8.73;;
6053;SDS011;3055;50.886;14.814;2022-07-03T00:18:50;9.43;;;8.53;;
6053;SDS011;3055;50.886;14.814;2022-07-03T00:21:19;9.70;;;8.70;;
6053;SDS011;3055;50.886;14.814;2022-07-03T00:23:51;10.97;;;9.27;;
6053;SDS011;3055;50.886;14.814;2022-07-03T00:26:23;9.93;;;9.03;;
6053;SDS011;3055;50.886;14.814;2022-07-03T00:28:54;10.83;;;9.00;;
6053;SDS011;3055;50.886;14.814;2022-07-03T00:31:25;10.03;;;9.03;;
6053;SDS011;3055;50.886;14.814;2022-07-03T00:33:55;10.43;;;9.53;;
6053;SDS011;3055;50.886;14.814;2022-07-03T00:36:24;13.27;;;9.13;;
6053;SDS011;3055;50.886;14.814;2022-07-03T00:38:52;10.10;;;9.10;;
6053;SDS011;3055;50.886;14.814;2022-07-03T00:41:28;10.23;;;9.23;;
6053;SDS011;3055;50.886;14.814;2022-07-03T00:43:56;10.80;;;9.03;;
6053;SDS011;3055;50.886;14.814;2022-07-03T00:46:23;9.33;;;8.43;;
6053;SDS011;3055;50.886;14.814;2022-07-03T00:48:52;10.40;;;9.30;;
6053;SDS011;3055;50.886;14.814;2022-07-03T00:51:21;11.00;;;9.07;;
6053;SDS011;3055;50.886;14.814;2022-07-03T00:53:50;9.47;;;8.57;;
6053;SDS011;3055;50.886;14.814;2022-07-03T00:56:19;9.83;;;8.97;;
6053;SDS011;3055;50.886;14.814;2022-07-03T00:58:52;9.47;;;8.57;;
6053;SDS011;3055;50.886;14.814;2022-07-03T01:01:21;10.37;;;9.23;;
6053;SDS011;3055;50.886;14.814;2022-07-03T01:03:53;9.83;;;8.87;;
6053;SDS011;3055;50.886;14.814;2022-07-03T01:06:31;9.50;;;8.50;;
6053;SDS011;3055;50.886;14.814;2022-07-03T01:09:02;8.97;;;8.10;;
6053;SDS011;3055;50.886;14.814;2022-07-03T01:11:33;9.53;;;8.63;;
6053;SDS011;3055;50.886;14.814;2022-07-03T01:14:11;9.73;;;8.33;;
6053;SDS011;3055;50.886;14.814;2022-07-03T01:16:47;8.67;;;7.97;;
6053;SDS011;3055;50.886;14.814;2022-07-03T01:19:36;9.43;;;8.47;;
6053;SDS011;3055;50.886;14.814;2022-07-03T01:25:15;10.40;;;9.40;;
6053;SDS011;3055;50.886;14.814;2022-07-03T01:27:51;9.97;;;9.07;;
6053;SDS011;3055;50.886;14.814;2022-07-03T01:30:24;10.60;;;9.40;;
6053;SDS011;3055;50.886;14.814;2022-07-03T01:32:56;10.27;;;9.07;;
6053;SDS011;3055;50.886;14.814;2022-07-03T01:35:27;10.47;;;9.47;;
6053;SDS011;3055;50.886;14.814;2022-07-03T01:38:01;10.43;;;9.53;;
6053;SDS011;3055;50.886;14.814;2022-07-03T01:40:31;11.07;;;9.97;;
6053;SDS011;3055;50.886;14.814;2022-07-03T01:43:02;11.10;;;9.30;;
6053;SDS011;3055;50.886;14.814;2022-07-03T01:45:31;10.47;;;9.47;;
6053;SDS011;3055;50.886;14.814;2022-07-03T01:48:00;10.10;;;8.93;;
6053;SDS011;3055;50.886;14.814;2022-07-03T01:50:31;10.77;;;9.10;;
6053;SDS011;3055;50.886;14.814;2022-07-03T01:52:59;8.57;;;7.87;;
6053;SDS011;3055;50.886;14.814;2022-07-03T01:55:30;9.13;;;8.33;;
6053;SDS011;3055;50.886;14.814;2022-07-03T01:57:58;11.87;;;9.43;;
6053;SDS011;3055;50.886;14.814;2022-07-03T02:00:27;8.90;;;8.00;;
6053;SDS011;3055;50.886;14.814;2022-07-03T02:02:59;10.60;;;8.93;;
6053;SDS011;3055;50.886;14.814;2022-07-03T02:05:32;9.23;;;8.37;;
6053;SDS011;3055;50.886;14.814;2022-07-03T02:08:06;9.53;;;8.73;;
6053;SDS011;3055;50.886;14.814;2022-07-03T02:10:38;10.40;;;9.40;;
6053;SDS011;3055;50.886;14.814;2022-07-03T02:13:13;9.70;;;8.80;;
6053;SDS011;3055;50.886;14.814;2022-07-03T02:15:45;9.67;;;8.77;;
6053;SDS011;3055;50.886;14.814;2022-07-03T02:18:18;11.30;;;8.67;;
6053;SDS011;3055;50.886;14.814;2022-07-03T02:20:56;10.00;;;9.07;;
6053;SDS011;3055;50.886;14.814;2022-07-03T02:23:36;9.77;;;8.87;;
6053;SDS011;3055;50.886;14.814;2022-07-03T02:26:12;10.43;;;9.10;;
6053;SDS011;3055;50.886;14.814;2022-07-03T02:28:49;10.83;;;9.80;;
6053;SDS011;3055;50.886;14.814;2022-07-03T02:31:24;10.60;;;9.60;;
6053;SDS011;3055;50.886;14.814;2022-07-03T02:33:53;10.27;;;9.27;;
6053;SDS011;3055;50.886;14.814;2022-07-03T02:36:24;10.27;;;9.27;;
6053;SDS011;3055;50.886;14.814;2022-07-03T02:38:56;10.60;;;9.60;;
6053;SDS011;3055;50.886;14.814;2022-07-03T02:41:27;9.77;;;8.87;;
6053;SDS011;3055;50.886;14.814;2022-07-03T02:44:01;10.10;;;9.10;;
6053;SDS011;3055;50.886;14.814;2022-07-03T02:46:37;11.93;;;9.77;;
6053;SDS011;3055;50.886;14.814;2022-07-03T02:49:25;10.07;;;9.10;;
6053;SDS011;3055;50.886;14.814;2022-07-03T02:52:21;11.43;;;9.33;;
6053;SDS011;3055;50.886;14.814;2022-07-03T02:54:55;10.47;;;9.37;;
6053;SDS011;3055;50.886;14.814;2022-07-03T02:57:26;10.70;;;9.80;;
6053;SDS011;3055;50.886;14.814;2022-07-03T03:00:02;10.00;;;9.00;;
6053;SDS011;3055;50.886;14.814;2022-07-03T03:02:47;9.77;;;8.87;;
6053;SDS011;3055;50.886;14.814;2022-07-03T03:05:26;9.33;;;8.43;;
6053;SDS011;3055;50.886;14.814;2022-07-03T03:07:59;9.23;;;8.43;;
6053;SDS011;3055;50.886;14.814;2022-07-03T03:10:35;9.60;;;8.67;;
6053;SDS011;3055;50.886;14.814;2022-07-03T03:13:04;9.17;;;8.30;;
6053;SDS011;3055;50.886;14.814;2022-07-03T03:15:32;8.90;;;8.07;;
6053;SDS011;3055;50.886;14.814;2022-07-03T03:18:02;8.00;;;7.30;;
6053;SDS011;3055;50.886;14.814;2022-07-03T03:20:31;7.90;;;7.20;;
6053;SDS011;3055;50.886;14.814;2022-07-03T03:23:02;8.57;;;7.27;;
6053;SDS011;3055;50.886;14.814;2022-07-03T03:25:50;7.63;;;7.00;;
6053;SDS011;3055;50.886;14.814;2022-07-03T03:28:17;7.87;;;7.03;;
6053;SDS011;3055;50.886;14.814;2022-07-03T03:30:44;7.23;;;6.63;;
6053;SDS011;3055;50.886;14.814;2022-07-03T03:33:13;6.87;;;6.27;;
6053;SDS011;3055;50.886;14.814;2022-07-03T03:35:40;7.03;;;6.33;;
6053;SDS011;3055;50.886;14.814;2022-07-03T03:38:07;7.27;;;6.57;;
6053;SDS011;3055;50.886;14.814;2022-07-03T03:40:34;6.73;;;6.03;;
6053;SDS011;3055;50.886;14.814;2022-07-03T03:43:02;7.83;;;6.37;;
6053;SDS011;3055;50.886;14.814;2022-07-03T03:45:29;6.07;;;5.57;;
6053;SDS011;3055;50.886;14.814;2022-07-03T03:47:56;6.70;;;6.20;;
6053;SDS011;3055;50.886;14.814;2022-07-03T03:50:25;6.20;;;5.60;;
6053;SDS011;3055;50.886;14.814;2022-07-03T03:52:52;6.40;;;5.90;;
6053;SDS011;3055;50.886;14.814;2022-07-03T03:55:19;6.50;;;5.87;;
6053;SDS011;3055;50.886;14.814;2022-07-03T03:57:46;6.67;;;5.23;;
6053;SDS011;3055;50.886;14.814;2022-07-03T04:00:14;5.33;;;4.93;;
6053;SDS011;3055;50.886;14.814;2022-07-03T04:02:41;5.63;;;5.13;;
6053;SDS011;3055;50.886;14.814;2022-07-03T04:05:08;5.70;;;5.20;;
6053;SDS011;3055;50.886;14.814;2022-07-03T04:07:36;5.90;;;5.40;;
6053;SDS011;3055;50.886;14.814;2022-07-03T04:10:05;5.27;;;4.87;;
6053;SDS011;3055;50.886;14.814;2022-07-03T04:12:33;5.70;;;5.20;;
6053;SDS011;3055;50.886;14.814;2022-07-03T04:15:00;4.93;;;4.43;;
6053;SDS011;3055;50.886;14.814;2022-07-03T04:17:27;5.27;;;4.77;;
6053;SDS011;3055;50.886;14.814;2022-07-03T04:19:54;6.67;;;4.27;;
6053;SDS011;3055;50.886;14.814;2022-07-03T04:22:21;4.47;;;4.07;;
6053;SDS011;3055;50.886;14.814;2022-07-03T04:24:49;4.03;;;3.70;;
6053;SDS011;3055;50.886;14.814;2022-07-03T04:27:16;3.50;;;3.20;;
6053;SDS011;3055;50.886;14.814;2022-07-03T04:29:43;3.10;;;2.80;;
6053;SDS011;3055;50.886;14.814;2022-07-03T04:32:10;3.40;;;2.87;;
6053;SDS011;3055;50.886;14.814;2022-07-03T04:34:37;3.37;;;3.00;;
6053;SDS011;3055;50.886;14.814;2022-07-03T04:37:04;3.47;;;2.63;;
6053;SDS011;3055;50.886;14.814;2022-07-03T04:39:31;3.77;;;2.50;;
6053;SDS011;3055;50.886;14.814;2022-07-03T04:41:59;3.20;;;2.50;;
6053;SDS011;3055;50.886;14.814;2022-07-03T04:44:26;4.03;;;2.57;;
6053;SDS011;3055;50.886;14.814;2022-07-03T04:46:53;2.97;;;2.50;;
6053;SDS011;3055;50.886;14.814;2022-07-03T04:49:20;3.63;;;2.80;;
6053;SDS011;3055;50.886;14.814;2022-07-03T04:51:47;3.63;;;2.60;;
6053;SDS011;3055;50.886;14.814;2022-07-03T04:54:14;2.30;;;2.10;;
6053;SDS011;3055;50.886;14.814;2022-07-03T04:56:41;3.03;;;2.67;;
6053;SDS011;3055;50.886;14.814;2022-07-03T04:59:09;2.97;;;2.67;;
6053;SDS011;3055;50.886;14.814;2022-07-03T05:01:36;2.70;;;2.50;;
6053;SDS011;3055;50.886;14.814;2022-07-03T05:04:03;2.67;;;2.40;;
6053;SDS011;3055;50.886;14.814;2022-07-03T05:06:30;3.73;;;2.57;;
6053;SDS011;3055;50.886;14.814;2022-07-03T05:08:57;2.83;;;2.37;;
6053;SDS011;3055;50.886;14.814;2022-07-03T05:11:24;3.43;;;2.50;;
6053;SDS011;3055;50.886;14.814;2022-07-03T05:13:51;3.93;;;2.57;;
6053;SDS011;3055;50.886;14.814;2022-07-03T05:16:19;3.20;;;2.83;;
6053;SDS011;3055;50.886;14.814;2022-07-03T05:18:46;2.30;;;2.10;;
6053;SDS011;3055;50.886;14.814;2022-07-03T05:21:13;2.60;;;2.40;;
6053;SDS011;3055;50.886;14.814;2022-07-03T05:23:40;5.20;;;3.57;;
6053;SDS011;3055;50.886;14.814;2022-07-03T05:26:07;3.50;;;2.90;;
6053;SDS011;3055;50.886;14.814;2022-07-03T05:28:34;3.93;;;3.30;;
6053;SDS011;3055;50.886;14.814;2022-07-03T05:31:01;3.23;;;2.63;;
6053;SDS011;3055;50.886;14.814;2022-07-03T05:33:29;3.63;;;3.00;;
6053;SDS011;3055;50.886;14.814;2022-07-03T05:35:56;2.90;;;2.70;;
6053;SDS011;3055;50.886;14.814;2022-07-03T05:38:24;2.77;;;2.57;;
6053;SDS011;3055;50.886;14.814;2022-07-03T05:41:07;3.00;;;2.50;;
6053;SDS011;3055;50.886;14.814;2022-07-03T05:43:34;3.60;;;2.60;;
6053;SDS011;3055;50.886;14.814;2022-07-03T05:46:02;5.13;;;2.63;;
6053;SDS011;3055;50.886;14.814;2022-07-03T05:48:30;3.43;;;2.57;;
6053;SDS011;3055;50.886;14.814;2022-07-03T05:50:57;2.90;;;2.20;;
6053;SDS011;3055;50.886;14.814;2022-07-03T05:53:24;4.47;;;2.70;;
6053;SDS011;3055;50.886;14.814;2022-07-03T05:55:51;4.40;;;2.33;;
6053;SDS011;3055;50.886;14.814;2022-07-03T05:58:18;2.40;;;2.00;;
6053;SDS011;3055;50.886;14.814;2022-07-03T06:00:45;2.50;;;2.00;;
6053;SDS011;3055;50.886;14.814;2022-07-03T06:03:12;3.00;;;2.20;;
6053;SDS011;3055;50.886;14.814;2022-07-03T06:05:41;3.40;;;1.70;;
6053;SDS011;3055;50.886;14.814;2022-07-03T06:08:07;2.20;;;2.00;;
6053;SDS011;3055;50.886;14.814;2022-07-03T06:10:34;2.07;;;1.87;;
6053;SDS011;3055;50.886;14.814;2022-07-03T06:13:01;2.27;;;1.93;;
6053;SDS011;3055;50.886;14.814;2022-07-03T06:15:28;2.40;;;2.17;;
6053;SDS011;3055;50.886;14.814;2022-07-03T06:17:55;3.00;;;2.13;;
6053;SDS011;3055;50.886;14.814;2022-07-03T06:20:22;2.00;;;1.90;;
6053;SDS011;3055;50.886;14.814;2022-07-03T06:22:51;2.60;;;2.00;;
6053;SDS011;3055;50.886;14.814;2022-07-03T06:25:19;2.07;;;1.87;;
6053;SDS011;3055;50.886;14.814;2022-07-03T06:27:46;2.30;;;1.70;;
6053;SDS011;3055;50.886;14.814;2022-07-03T06:30:13;1.73;;;1.63;;
6053;SDS011;3055;50.886;14.814;2022-07-03T06:32:40;1.77;;;1.67;;
6053;SDS011;3055;50.886;14.814;2022-07-03T06:35:07;1.50;;;1.40;;
6053;SDS011;3055;50.886;14.814;2022-07-03T06:37:34;2.43;;;1.43;;
6053;SDS011;3055;50.886;14.814;2022-07-03T06:40:03;2.00;;;1.80;;
6053;SDS011;3055;50.886;14.814;2022-07-03T06:42:30;2.10;;;1.90;;
6053;SDS011;3055;50.886;14.814;2022-07-03T06:44:57;1.87;;;1.50;;
6053;SDS011;3055;50.886;14.814;2022-07-03T06:47:24;1.77;;;1.47;;
6053;SDS011;3055;50.886;14.814;2022-07-03T06:49:51;2.27;;;1.50;;
6053;SDS011;3055;50.886;14.814;2022-07-03T06:52:18;1.93;;;1.70;;
6053;SDS011;3055;50.886;14.814;2022-07-03T06:54:45;2.80;;;1.60;;
6053;SDS011;3055;50.886;14.814;2022-07-03T06:57:13;1.80;;;1.40;;
6053;SDS011;3055;50.886;14.814;2022-07-03T06:59:41;1.67;;;1.17;;
6053;SDS011;3055;50.886;14.814;2022-07-03T07:02:07;1.97;;;1.27;;
6053;SDS011;3055;50.886;14.814;2022-07-03T07:04:34;3.23;;;1.70;;
6053;SDS011;3055;50.886;14.814;2022-07-03T07:07:01;1.70;;;1.50;;
6053;SDS011;3055;50.886;14.814;2022-07-03T07:09:29;1.93;;;1.60;;
6053;SDS011;3055;50.886;14.814;2022-07-03T07:11:56;1.60;;;1.27;;
6053;SDS011;3055;50.886;14.814;2022-07-03T07:14:24;2.10;;;1.43;;
6053;SDS011;3055;50.886;14.814;2022-07-03T07:16:51;3.37;;;1.77;;
6053;SDS011;3055;50.886;14.814;2022-07-03T07:19:18;2.17;;;1.63;;
6053;SDS011;3055;50.886;14.814;2022-07-03T07:21:45;2.27;;;1.40;;
6053;SDS011;3055;50.886;14.814;2022-07-03T07:24:12;1.50;;;1.40;;
6053;SDS011;3055;50.886;14.814;2022-07-03T07:26:39;1.73;;;1.50;;
6053;SDS011;3055;50.886;14.814;2022-07-03T07:29:06;1.50;;;1.40;;
6053;SDS011;3055;50.886;14.814;2022-07-03T07:31:34;2.70;;;1.83;;
6053;SDS011;3055;50.886;14.814;2022-07-03T07:34:01;1.77;;;1.57;;
6053;SDS011;3055;50.886;14.814;2022-07-03T07:36:29;1.93;;;1.30;;
6053;SDS011;3055;50.886;14.814;2022-07-03T07:38:56;1.43;;;1.33;;
6053;SDS011;3055;50.886;14.814;2022-07-03T07:41:23;1.40;;;1.30;;
6053;SDS011;3055;50.886;14.814;2022-07-03T07:43:50;2.00;;;1.40;;
6053;SDS011;3055;50.886;14.814;2022-07-03T07:46:17;2.60;;;1.17;;
6053;SDS011;3055;50.886;14.814;2022-07-03T07:48:45;1.73;;;1.00;;
6053;SDS011;3055;50.886;14.814;2022-07-03T07:51:12;1.40;;;1.30;;
6053;SDS011;3055;50.886;14.814;2022-07-03T07:53:39;1.30;;;1.17;;
6053;SDS011;3055;50.886;14.814;2022-07-03T07:56:06;2.63;;;1.50;;
6053;SDS011;3055;50.886;14.814;2022-07-03T07:58:33;1.43;;;1.20;;
6053;SDS011;3055;50.886;14.814;2022-07-03T08:01:00;1.80;;;1.37;;
6053;SDS011;3055;50.886;14.814;2022-07-03T08:03:46;1.50;;;1.40;;
6053;SDS011;3055;50.886;14.814;2022-07-03T08:06:30;1.23;;;1.13;;
6053;SDS011;3055;50.886;14.814;2022-07-03T08:08:57;2.83;;;1.90;;
6053;SDS011;3055;50.886;14.814;2022-07-03T08:11:24;2.17;;;1.50;;
6053;SDS011;3055;50.886;14.814;2022-07-03T08:13:51;1.47;;;1.37;;
6053;SDS011;3055;50.886;14.814;2022-07-03T08:16:18;2.77;;;1.60;;
6053;SDS011;3055;50.886;14.814;2022-07-03T08:18:46;1.50;;;1.40;;
6053;SDS011;3055;50.886;14.814;2022-07-03T08:21:13;1.23;;;1.13;;
6053;SDS011;3055;50.886;14.814;2022-07-03T08:23:40;1.60;;;1.50;;
6053;SDS011;3055;50.886;14.814;2022-07-03T08:26:07;1.50;;;1.40;;
6053;SDS011;3055;50.886;14.814;2022-07-03T08:28:33;2.23;;;1.40;;
6053;SDS011;3055;50.886;14.814;2022-07-03T08:31:00;1.70;;;1.60;;
6053;SDS011;3055;50.886;14.814;2022-07-03T08:33:27;1.77;;;1.57;;
6053;SDS011;3055;50.886;14.814;2022-07-03T08:35:56;3.47;;;1.90;;
6053;SDS011;3055;50.886;14.814;2022-07-03T08:38:23;1.73;;;1.63;;
6053;SDS011;3055;50.886;14.814;2022-07-03T08:40:55;1.90;;;1.50;;
6053;SDS011;3055;50.886;14.814;2022-07-03T08:43:24;1.67;;;1.57;;
6053;SDS011;3055;50.886;14.814;2022-07-03T08:45:51;1.90;;;1.60;;
6053;SDS011;3055;50.886;14.814;2022-07-03T08:48:19;2.37;;;1.43;;
6053;SDS011;3055;50.886;14.814;2022-07-03T08:50:47;3.23;;;1.73;;
6053;SDS011;3055;50.886;14.814;2022-07-03T08:53:17;1.73;;;1.43;;
6053;SDS011;3055;50.886;14.814;2022-07-03T08:55:44;1.77;;;1.67;;
6053;SDS011;3055;50.886;14.814;2022-07-03T08:58:13;1.50;;;1.40;;
6053;SDS011;3055;50.886;14.814;2022-07-03T09:00:42;1.60;;;1.50;;
6053;SDS011;3055;50.886;14.814;2022-07-03T09:03:09;1.70;;;1.57;;
6053;SDS011;3055;50.886;14.814;2022-07-03T09:05:38;1.53;;;1.40;;
6053;SDS011;3055;50.886;14.814;2022-07-03T09:08:05;1.60;;;1.50;;
6053;SDS011;3055;50.886;14.814;2022-07-03T09:10:35;2.63;;;1.70;;
6053;SDS011;3055;50.886;14.814;2022-07-03T09:13:02;1.83;;;1.63;;
6053;SDS011;3055;50.886;14.814;2022-07-03T09:15:29;1.77;;;1.63;;
6053;SDS011;3055;50.886;14.814;2022-07-03T09:17:57;2.17;;;1.73;;
6053;SDS011;3055;50.886;14.814;2022-07-03T09:20:29;2.77;;;1.80;;
6053;SDS011;3055;50.886;14.814;2022-07-03T09:23:07;2.00;;;1.47;;
6053;SDS011;3055;50.886;14.814;2022-07-03T09:25:37;2.03;;;1.80;;
6053;SDS011;3055;50.886;14.814;2022-07-03T09:28:17;1.83;;;1.73;;
6053;SDS011;3055;50.886;14.814;2022-07-03T09:30:55;4.10;;;3.80;;
6053;SDS011;3055;50.886;14.814;2022-07-03T09:33:23;2.43;;;2.23;;
6053;SDS011;3055;50.886;14.814;2022-07-03T09:35:52;1.93;;;1.70;;
6053;SDS011;3055;50.886;14.814;2022-07-03T09:38:21;1.70;;;1.60;;
6053;SDS011;3055;50.886;14.814;2022-07-03T09:40:50;2.10;;;1.90;;
6053;SDS011;3055;50.886;14.814;2022-07-03T09:43:24;1.57;;;1.47;;
6053;SDS011;3055;50.886;14.814;2022-07-03T09:45:54;2.33;;;1.90;;
6053;SDS011;3055;50.886;14.814;2022-07-03T09:48:26;3.23;;;1.60;;
6053;SDS011;3055;50.886;14.814;2022-07-03T09:51:10;3.30;;;1.80;;
6053;SDS011;3055;50.886;14.814;2022-07-03T09:53:49;1.90;;;1.40;;
6053;SDS011;3055;50.886;14.814;2022-07-03T09:56:19;1.80;;;1.63;;
6053;SDS011;3055;50.886;14.814;2022-07-03T09:59:09;2.63;;;1.77;;
6053;SDS011;3055;50.886;14.814;2022-07-03T10:01:38;1.90;;;1.80;;
6053;SDS011;3055;50.886;14.814;2022-07-03T10:04:13;1.80;;;1.70;;
6053;SDS011;3055;50.886;14.814;2022-07-03T10:06:45;2.20;;;1.90;;
6053;SDS011;3055;50.886;14.814;2022-07-03T10:09:13;2.20;;;2.03;;
6053;SDS011;3055;50.886;14.814;2022-07-03T10:11:42;2.33;;;1.77;;
6053;SDS011;3055;50.886;14.814;2022-07-03T10:14:10;3.33;;;2.30;;
6053;SDS011;3055;50.886;14.814;2022-07-03T10:16:40;7.23;;;2.03;;
6053;SDS011;3055;50.886;14.814;2022-07-03T10:19:07;2.33;;;2.00;;
6053;SDS011;3055;50.886;14.814;2022-07-03T10:21:39;2.00;;;1.87;;
6053;SDS011;3055;50.886;14.814;2022-07-03T10:24:08;1.87;;;1.70;;
6053;SDS011;3055;50.886;14.814;2022-07-03T10:26:38;2.13;;;1.60;;
6053;SDS011;3055;50.886;14.814;2022-07-03T10:29:09;1.73;;;1.60;;
6053;SDS011;3055;50.886;14.814;2022-07-03T10:31:40;2.50;;;1.80;;
6053;SDS011;3055;50.886;14.814;2022-07-03T10:34:11;2.90;;;1.90;;
6053;SDS011;3055;50.886;14.814;2022-07-03T10:36:42;1.90;;;1.80;;
6053;SDS011;3055;50.886;14.814;2022-07-03T10:39:10;3.23;;;1.57;;
6053;SDS011;3055;50.886;14.814;2022-07-03T10:41:47;2.47;;;1.97;;
6053;SDS011;3055;50.886;14.814;2022-07-03T10:44:36;1.80;;;1.70;;
6053;SDS011;3055;50.886;14.814;2022-07-03T10:50:10;5.07;;;1.80;;
6053;SDS011;3055;50.886;14.814;2022-07-03T10:52:38;1.70;;;1.40;;
6053;SDS011;3055;50.886;14.814;2022-07-03T10:55:06;3.93;;;2.00;;
6053;SDS011;3055;50.886;14.814;2022-07-03T10:57:34;2.53;;;1.67;;
6053;SDS011;3055;50.886;14.814;2022-07-03T11:00:07;2.13;;;1.60;;
6053;SDS011;3055;50.886;14.814;2022-07-03T11:02:39;1.83;;;1.57;;
6053;SDS011;3055;50.886;14.814;2022-07-03T11:05:17;2.23;;;1.63;;
6053;SDS011;3055;50.886;14.814;2022-07-03T11:08:04;2.47;;;2.27;;
6053;SDS011;3055;50.886;14.814;2022-07-03T11:10:39;2.07;;;1.73;;
6053;SDS011;3055;50.886;14.814;2022-07-03T11:13:08;1.93;;;1.83;;
6053;SDS011;3055;50.886;14.814;2022-07-03T11:15:48;1.50;;;1.40;;
6053;SDS011;3055;50.886;14.814;2022-07-03T11:18:17;1.90;;;1.80;;
6053;SDS011;3055;50.886;14.814;2022-07-03T11:20:55;1.73;;;1.43;;
6053;SDS011;3055;50.886;14.814;2022-07-03T11:27:12;2.20;;;1.70;;
6053;SDS011;3055;50.886;14.814;2022-07-03T11:29:48;1.60;;;1.50;;
6053;SDS011;3055;50.886;14.814;2022-07-03T11:38:25;1.83;;;1.63;;
6053;SDS011;3055;50.886;14.814;2022-07-03T11:40:54;1.53;;;1.43;;
6053;SDS011;3055;50.886;14.814;2022-07-03T11:43:23;1.87;;;1.50;;
6053;SDS011;3055;50.886;14.814;2022-07-03T11:45:50;1.47;;;1.37;;
6053;SDS011;3055;50.886;14.814;2022-07-03T11:48:19;2.80;;;1.90;;
6053;SDS011;3055;50.886;14.814;2022-07-03T11:50:47;1.60;;;1.50;;
6053;SDS011;3055;50.886;14.814;2022-07-03T11:53:19;1.70;;;1.60;;
6053;SDS011;3055;50.886;14.814;2022-07-03T11:55:50;2.00;;;1.80;;
6053;SDS011;3055;50.886;14.814;2022-07-03T11:58:19;2.60;;;1.90;;
6053;SDS011;3055;50.886;14.814;2022-07-03T12:00:46;2.77;;;1.50;;
6053;SDS011;3055;50.886;14.814;2022-07-03T12:03:13;1.70;;;1.60;;
6053;SDS011;3055;50.886;14.814;2022-07-03T12:05:56;1.60;;;1.30;;
6053;SDS011;3055;50.886;14.814;2022-07-03T12:08:25;1.80;;;1.30;;
6053;SDS011;3055;50.886;14.814;2022-07-03T12:11:00;1.87;;;1.60;;
6053;SDS011;3055;50.886;14.814;2022-07-03T12:13:29;1.70;;;1.60;;
6053;SDS011;3055;50.886;14.814;2022-07-03T12:16:04;1.80;;;1.70;;
6053;SDS011;3055;50.886;14.814;2022-07-03T12:18:42;5.50;;;2.60;;
6053;SDS011;3055;50.886;14.814;2022-07-03T12:21:11;2.07;;;1.97;;
6053;SDS011;3055;50.886;14.814;2022-07-03T12:23:46;2.23;;;1.90;;
6053;SDS011;3055;50.886;14.814;2022-07-03T12:26:26;5.73;;;5.33;;
6053;SDS011;3055;50.886;14.814;2022-07-03T12:28:54;3.27;;;3.07;;
6053;SDS011;3055;50.886;14.814;2022-07-03T12:31:22;2.30;;;1.80;;
6053;SDS011;3055;50.886;14.814;2022-07-03T12:33:49;2.67;;;1.70;;
6053;SDS011;3055;50.886;14.814;2022-07-03T12:36:18;2.57;;;2.37;;
6053;SDS011;3055;50.886;14.814;2022-07-03T12:38:47;3.00;;;1.70;;
6053;SDS011;3055;50.886;14.814;2022-07-03T12:41:15;1.73;;;1.60;;
6053;SDS011;3055;50.886;14.814;2022-07-03T12:43:42;2.07;;;1.60;;
6053;SDS011;3055;50.886;14.814;2022-07-03T12:46:19;3.17;;;1.63;;
6053;SDS011;3055;50.886;14.814;2022-07-03T12:48:48;1.87;;;1.77;;
6053;SDS011;3055;50.886;14.814;2022-07-03T12:51:35;3.63;;;2.10;;
6053;SDS011;3055;50.886;14.814;2022-07-03T12:54:04;2.03;;;1.90;;
6053;SDS011;3055;50.886;14.814;2022-07-03T12:56:31;1.70;;;1.50;;
6053;SDS011;3055;50.886;14.814;2022-07-03T12:58:58;2.13;;;1.80;;
6053;SDS011;3055;50.886;14.814;2022-07-03T13:01:43;2.27;;;1.60;;
6053;SDS011;3055;50.886;14.814;2022-07-03T13:04:11;2.03;;;1.50;;
6053;SDS011;3055;50.886;14.814;2022-07-03T13:06:44;2.60;;;1.60;;
6053;SDS011;3055;50.886;14.814;2022-07-03T13:09:11;1.87;;;1.70;;
6053;SDS011;3055;50.886;14.814;2022-07-03T13:11:38;2.47;;;1.80;;
6053;SDS011;3055;50.886;14.814;2022-07-03T13:14:07;2.03;;;1.60;;
6053;SDS011;3055;50.886;14.814;2022-07-03T13:16:36;2.57;;;1.70;;
6053;SDS011;3055;50.886;14.814;2022-07-03T13:19:05;1.90;;;1.63;;
6053;SDS011;3055;50.886;14.814;2022-07-03T13:21:33;1.70;;;1.60;;
6053;SDS011;3055;50.886;14.814;2022-07-03T13:24:02;2.37;;;1.50;;
6053;SDS011;3055;50.886;14.814;2022-07-03T13:26:29;2.77;;;1.93;;
6053;SDS011;3055;50.886;14.814;2022-07-03T13:28:56;2.27;;;1.60;;
6053;SDS011;3055;50.886;14.814;2022-07-03T13:31:23;2.47;;;1.67;;
6053;SDS011;3055;50.886;14.814;2022-07-03T13:33:50;2.13;;;1.57;;
6053;SDS011;3055;50.886;14.814;2022-07-03T13:36:17;2.37;;;1.80;;
6053;SDS011;3055;50.886;14.814;2022-07-03T13:38:44;2.63;;;1.60;;
6053;SDS011;3055;50.886;14.814;2022-07-03T13:41:12;1.67;;;1.57;;
6053;SDS011;3055;50.886;14.814;2022-07-03T13:43:40;1.90;;;1.80;;
6053;SDS011;3055;50.886;14.814;2022-07-03T13:46:07;1.80;;;1.70;;
6053;SDS011;3055;50.886;14.814;2022-07-03T13:48:34;1.60;;;1.50;;
6053;SDS011;3055;50.886;14.814;2022-07-03T13:51:00;2.10;;;1.77;;
6053;SDS011;3055;50.886;14.814;2022-07-03T13:53:28;2.43;;;1.83;;
6053;SDS011;3055;50.886;14.814;2022-07-03T13:55:55;2.40;;;1.60;;
6053;SDS011;3055;50.886;14.814;2022-07-03T13:58:24;1.80;;;1.70;;
6053;SDS011;3055;50.886;14.814;2022-07-03T14:00:52;2.93;;;1.67;;
6053;SDS011;3055;50.886;14.814;2022-07-03T14:03:20;2.20;;;2.00;;
6053;SDS011;3055;50.886;14.814;2022-07-03T14:05:47;2.37;;;1.80;;
6053;SDS011;3055;50.886;14.814;2022-07-03T14:08:18;2.93;;;1.80;;
6053;SDS011;3055;50.886;14.814;2022-07-03T14:10:45;2.00;;;1.90;;
6053;SDS011;3055;50.886;14.814;2022-07-03T14:13:13;2.00;;;1.80;;
6053;SDS011;3055;50.886;14.814;2022-07-03T14:15:41;1.80;;;1.70;;
6053;SDS011;3055;50.886;14.814;2022-07-03T14:18:08;2.30;;;2.00;;
6053;SDS011;3055;50.886;14.814;2022-07-03T14:20:35;1.90;;;1.70;;
6053;SDS011;3055;50.886;14.814;2022-07-03T14:23:02;4.53;;;1.90;;
6053;SDS011;3055;50.886;14.814;2022-07-03T14:25:29;3.67;;;1.80;;
6053;SDS011;3055;50.886;14.814;2022-07-03T14:27:56;2.10;;;1.90;;
6053;SDS011;3055;50.886;14.814;2022-07-03T14:30:42;3.53;;;2.00;;
6053;SDS011;3055;50.886;14.814;2022-07-03T14:33:26;2.83;;;2.03;;
6053;SDS011;3055;50.886;14.814;2022-07-03T14:35:53;1.87;;;1.77;;
6053;SDS011;3055;50.886;14.814;2022-07-03T14:38:20;2.60;;;1.97;;
6053;SDS011;3055;50.886;14.814;2022-07-03T14:40:47;2.17;;;1.90;;
6053;SDS011;3055;50.886;14.814;2022-07-03T14:43:14;2.00;;;1.90;;
6053;SDS011;3055;50.886;14.814;2022-07-03T14:45:42;3.30;;;2.10;;
6053;SDS011;3055;50.886;14.814;2022-07-03T14:48:09;2.33;;;1.90;;
6053;SDS011;3055;50.886;14.814;2022-07-03T14:50:36;1.67;;;1.57;;
6053;SDS011;3055;50.886;14.814;2022-07-03T14:53:04;2.27;;;1.80;;
6053;SDS011;3055;50.886;14.814;2022-07-03T14:55:36;1.70;;;1.60;;
6053;SDS011;3055;50.886;14.814;2022-07-03T14:58:04;2.00;;;1.90;;
6053;SDS011;3055;50.886;14.814;2022-07-03T15:00:36;1.90;;;1.80;;
6053;SDS011;3055;50.886;14.814;2022-07-03T15:03:10;1.80;;;1.70;;
6053;SDS011;3055;50.886;14.814;2022-07-03T15:05:43;2.10;;;1.90;;
6053;SDS011;3055;50.886;14.814;2022-07-03T15:08:15;2.90;;;2.00;;
6053;SDS011;3055;50.886;14.814;2022-07-03T15:10:52;3.10;;;2.10;;
6053;SDS011;3055;50.886;14.814;2022-07-03T15:13:20;2.90;;;1.57;;
6053;SDS011;3055;50.886;14.814;2022-07-03T15:15:47;2.43;;;2.23;;
6053;SDS011;3055;50.886;14.814;2022-07-03T15:18:18;3.73;;;1.70;;
6053;SDS011;3055;50.886;14.814;2022-07-03T15:20:47;3.13;;;2.17;;
6053;SDS011;3055;50.886;14.814;2022-07-03T15:23:17;2.03;;;1.83;;
6053;SDS011;3055;50.886;14.814;2022-07-03T15:25:44;2.37;;;2.17;;
6053;SDS011;3055;50.886;14.814;2022-07-03T15:28:12;4.30;;;2.00;;
6053;SDS011;3055;50.886;14.814;2022-07-03T15:30:53;2.40;;;2.20;;
6053;SDS011;3055;50.886;14.814;2022-07-03T15:33:24;2.40;;;2.20;;